EVG weather

Sveg Airport
Jämtlande län, Sweden

Public forecast

Using degrees Celsius for public forecast. Weather courtesy of forecast.io.

Closest aviation weather report (METAR) to Sveg Airport

Closest report is Mora Airport, 65.5 nm (121.3 km) S. Retrieved 2020/04/02 19:20 UTC (17 minutes ago):

ESKM 021920Z AUTO 25007KT 9999 SCT076/// 00/M04 Q0973

Closest aviation forecast (TAF) to Sveg Airport

Forecast is more than 12 hours old.

Closest forecast is Sundsvall-Härnösand Airport, 89.1 nm (165.1 km) ENE. Retrieved 2016/05/29 09:33 UTC (4 years ago):

TAF TAF ESNN 290830Z 2909/3018 07006KT 9999 SCT045 BECMG 2913/2915 14010KT